sensor_id;sensor_type;location;lat;lon;timestamp;pressure;altitude;pressure_sealevel;temperature;humidity
51496;BME280;37572;52.094;4.870;2024-03-08T00:01:12;101909.22;;;8.03;55.67
51496;BME280;37572;52.094;4.870;2024-03-08T00:03:37;101910.38;;;7.99;55.48
51496;BME280;37572;52.094;4.870;2024-03-08T00:06:03;101910.63;;;7.96;55.59
51496;BME280;37572;52.094;4.870;2024-03-08T00:08:29;101900.25;;;7.93;55.26
51496;BME280;37572;52.094;4.870;2024-03-08T00:10:56;101902.13;;;7.91;55.72
51496;BME280;37572;52.094;4.870;2024-03-08T00:13:21;101895.25;;;7.88;55.68
51496;BME280;37572;52.094;4.870;2024-03-08T00:15:46;101889.13;;;7.88;55.42
51496;BME280;37572;52.094;4.870;2024-03-08T00:18:12;101893.56;;;7.87;55.60
51496;BME280;37572;52.094;4.870;2024-03-08T00:20:37;101898.88;;;7.87;55.41
51496;BME280;37572;52.094;4.870;2024-03-08T00:23:03;101897.91;;;7.88;55.50
51496;BME280;37572;52.094;4.870;2024-03-08T00:25:29;101897.91;;;7.88;55.48
51496;BME280;37572;52.094;4.870;2024-03-08T00:27:54;101897.19;;;7.86;55.49
51496;BME280;37572;52.094;4.870;2024-03-08T00:30:22;101894.66;;;7.85;55.06
51496;BME280;37572;52.094;4.870;2024-03-08T00:32:48;101886.69;;;7.85;55.34
51496;BME280;37572;52.094;4.870;2024-03-08T00:35:14;101886.69;;;7.85;55.01
51496;BME280;37572;52.094;4.870;2024-03-08T00:37:40;101880.53;;;7.84;54.97
51496;BME280;37572;52.094;4.870;2024-03-08T00:40:07;101877.75;;;7.86;54.98
51496;BME280;37572;52.094;4.870;2024-03-08T00:42:34;101874.28;;;7.85;54.73
51496;BME280;37572;52.094;4.870;2024-03-08T00:44:59;101876.19;;;7.83;55.05
51496;BME280;37572;52.094;4.870;2024-03-08T00:47:25;101871.94;;;7.81;54.63
51496;BME280;37572;52.094;4.870;2024-03-08T00:49:50;101866.88;;;7.77;54.80
51496;BME280;37572;52.094;4.870;2024-03-08T00:52:16;101873.16;;;7.76;54.65
51496;BME280;37572;52.094;4.870;2024-03-08T00:54:43;101871.56;;;7.74;54.71
51496;BME280;37572;52.094;4.870;2024-03-08T00:57:08;101870.94;;;7.70;54.93
51496;BME280;37572;52.094;4.870;2024-03-08T00:59:34;101863.09;;;7.69;54.79
51496;BME280;37572;52.094;4.870;2024-03-08T01:02:00;101861.28;;;7.69;54.58
51496;BME280;37572;52.094;4.870;2024-03-08T01:04:26;101853.47;;;7.68;54.63
51496;BME280;37572;52.094;4.870;2024-03-08T01:06:55;101847.19;;;7.69;54.48
51496;BME280;37572;52.094;4.870;2024-03-08T01:09:25;101851.63;;;7.68;54.37
51496;BME280;37572;52.094;4.870;2024-03-08T01:11:51;101849.09;;;7.67;54.51
51496;BME280;37572;52.094;4.870;2024-03-08T01:14:18;101837.00;;;7.63;54.22
51496;BME280;37572;52.094;4.870;2024-03-08T01:16:43;101838.81;;;7.62;54.26
51496;BME280;37572;52.094;4.870;2024-03-08T01:19:08;101833.63;;;7.60;54.01
51496;BME280;37572;52.094;4.870;2024-03-08T01:21:34;101829.41;;;7.58;53.99
51496;BME280;37572;52.094;4.870;2024-03-08T01:24:00;101826.16;;;7.54;54.27
51496;BME280;37572;52.094;4.870;2024-03-08T01:26:26;101828.91;;;7.53;54.14
51496;BME280;37572;52.094;4.870;2024-03-08T01:28:51;101829.97;;;7.50;53.97
51496;BME280;37572;52.094;4.870;2024-03-08T01:31:17;101825.59;;;7.49;53.94
51496;BME280;37572;52.094;4.870;2024-03-08T01:33:42;101825.00;;;7.46;54.32
51496;BME280;37572;52.094;4.870;2024-03-08T01:36:09;101817.16;;;7.44;54.49
51496;BME280;37572;52.094;4.870;2024-03-08T01:38:34;101815.69;;;7.40;54.27
51496;BME280;37572;52.094;4.870;2024-03-08T01:41:01;101815.69;;;7.40;54.22
51496;BME280;37572;52.094;4.870;2024-03-08T01:43:27;101808.56;;;7.40;54.41
51496;BME280;37572;52.094;4.870;2024-03-08T01:45:59;101800.63;;;7.40;54.17
51496;BME280;37572;52.094;4.870;2024-03-08T01:48:25;101802.44;;;7.40;53.99
51496;BME280;37572;52.094;4.870;2024-03-08T01:50:52;101800.84;;;7.37;54.12
51496;BME280;37572;52.094;4.870;2024-03-08T01:53:18;101800.00;;;7.37;54.37
51496;BME280;37572;52.094;4.870;2024-03-08T01:55:48;101790.47;;;7.34;54.14
51496;BME280;37572;52.094;4.870;2024-03-08T01:58:14;101802.97;;;7.32;53.79
51496;BME280;37572;52.094;4.870;2024-03-08T02:00:44;101792.84;;;7.26;53.99
51496;BME280;37572;52.094;4.870;2024-03-08T02:03:11;101787.75;;;7.23;53.92
51496;BME280;37572;52.094;4.870;2024-03-08T02:05:38;101789.44;;;7.24;54.18
51496;BME280;37572;52.094;4.870;2024-03-08T02:08:06;101781.50;;;7.24;54.29
51496;BME280;37572;52.094;4.870;2024-03-08T02:10:33;101779.06;;;7.21;54.00
51496;BME280;37572;52.094;4.870;2024-03-08T02:13:01;101773.03;;;7.19;54.24
51496;BME280;37572;52.094;4.870;2024-03-08T02:15:50;101771.47;;;7.16;54.18
51496;BME280;37572;52.094;4.870;2024-03-08T02:18:16;101765.41;;;7.14;54.41
51496;BME280;37572;52.094;4.870;2024-03-08T02:20:42;101761.31;;;7.10;53.95
51496;BME280;37572;52.094;4.870;2024-03-08T02:23:08;101759.50;;;7.11;54.19
51496;BME280;37572;52.094;4.870;2024-03-08T02:25:34;101755.16;;;7.10;54.46
51496;BME280;37572;52.094;4.870;2024-03-08T02:27:59;101747.31;;;7.08;53.96
51496;BME280;37572;52.094;4.870;2024-03-08T02:30:25;101753.47;;;7.09;54.03
51496;BME280;37572;52.094;4.870;2024-03-08T02:32:54;101750.09;;;7.07;54.03
51496;BME280;37572;52.094;4.870;2024-03-08T02:35:20;101744.06;;;7.04;53.84
51496;BME280;37572;52.094;4.870;2024-03-08T02:37:46;101745.00;;;7.03;54.08
51496;BME280;37572;52.094;4.870;2024-03-08T02:40:13;101737.06;;;7.03;53.87
51496;BME280;37572;52.094;4.870;2024-03-08T02:42:38;101729.13;;;7.03;53.99
51496;BME280;37572;52.094;4.870;2024-03-08T02:45:04;101730.16;;;7.01;53.99
51496;BME280;37572;52.094;4.870;2024-03-08T02:47:31;101731.97;;;7.00;53.93
51496;BME280;37572;52.094;4.870;2024-03-08T02:49:56;101732.19;;;6.97;53.84
51496;BME280;37572;52.094;4.870;2024-03-08T02:52:22;101719.28;;;6.93;54.13
51496;BME280;37572;52.094;4.870;2024-03-08T02:54:48;101719.63;;;6.88;54.17
51496;BME280;37572;52.094;4.870;2024-03-08T02:57:13;101726.72;;;6.88;53.73
51496;BME280;37572;52.094;4.870;2024-03-08T02:59:40;101721.75;;;6.83;53.58
51496;BME280;37572;52.094;4.870;2024-03-08T03:02:05;101714.75;;;6.82;53.65
51496;BME280;37572;52.094;4.870;2024-03-08T03:04:32;101713.06;;;6.81;54.01
51496;BME280;37572;52.094;4.870;2024-03-08T03:06:59;101714.13;;;6.78;54.20
51496;BME280;37572;52.094;4.870;2024-03-08T03:09:25;101711.50;;;6.78;54.03
51496;BME280;37572;52.094;4.870;2024-03-08T03:11:53;101707.25;;;6.76;54.01
51496;BME280;37572;52.094;4.870;2024-03-08T03:14:21;101700.38;;;6.73;54.14
51496;BME280;37572;52.094;4.870;2024-03-08T03:16:46;101696.03;;;6.72;53.74
51496;BME280;37572;52.094;4.870;2024-03-08T03:19:11;101693.50;;;6.71;53.86
51496;BME280;37572;52.094;4.870;2024-03-08T03:21:37;101697.13;;;6.70;53.76
51496;BME280;37572;52.094;4.870;2024-03-08T03:24:03;101700.72;;;6.69;53.75
51496;BME280;37572;52.094;4.870;2024-03-08T03:26:30;101694.56;;;6.68;53.67
51496;BME280;37572;52.094;4.870;2024-03-08T03:28:56;101693.72;;;6.67;53.64
51496;BME280;37572;52.094;4.870;2024-03-08T03:31:22;101696.47;;;6.66;53.36
51496;BME280;37572;52.094;4.870;2024-03-08T03:33:49;101688.66;;;6.64;53.69
51496;BME280;37572;52.094;4.870;2024-03-08T03:36:17;101680.72;;;6.64;53.32
51496;BME280;37572;52.094;4.870;2024-03-08T03:38:43;101683.38;;;6.64;53.30
51496;BME280;37572;52.094;4.870;2024-03-08T03:41:08;101684.31;;;6.63;53.60
51496;BME280;37572;52.094;4.870;2024-03-08T03:43:37;101679.13;;;6.62;53.58
51496;BME280;37572;52.094;4.870;2024-03-08T03:46:07;101674.78;;;6.61;53.23
51496;BME280;37572;52.094;4.870;2024-03-08T03:48:33;101668.66;;;6.60;53.24
51496;BME280;37572;52.094;4.870;2024-03-08T03:50:58;101684.53;;;6.60;53.39
51496;BME280;37572;52.094;4.870;2024-03-08T03:53:23;101675.03;;;6.58;52.96
51496;BME280;37572;52.094;4.870;2024-03-08T03:55:51;101668.97;;;6.56;53.16
51496;BME280;37572;52.094;4.870;2024-03-08T03:58:16;101670.78;;;6.55;53.50
51496;BME280;37572;52.094;4.870;2024-03-08T04:00:47;101674.38;;;6.54;53.48
51496;BME280;37572;52.094;4.870;2024-03-08T04:03:12;101676.19;;;6.54;53.18
51496;BME280;37572;52.094;4.870;2024-03-08T04:05:38;101672.59;;;6.55;53.28
51496;BME280;37572;52.094;4.870;2024-03-08T04:08:04;101677.13;;;6.53;52.89
51496;BME280;37572;52.094;4.870;2024-03-08T04:10:30;101674.47;;;6.53;53.07
51496;BME280;37572;52.094;4.870;2024-03-08T04:12:55;101668.44;;;6.51;53.01
51496;BME280;37572;52.094;4.870;2024-03-08T04:15:21;101661.59;;;6.48;52.81
51496;BME280;37572;52.094;4.870;2024-03-08T04:17:48;101658.06;;;6.47;53.04
51496;BME280;37572;52.094;4.870;2024-03-08T04:20:13;101659.06;;;6.46;52.98
51496;BME280;37572;52.094;4.870;2024-03-08T04:22:39;101653.88;;;6.45;52.85
51496;BME280;37572;52.094;4.870;2024-03-08T04:25:06;101657.25;;;6.47;52.72
51496;BME280;37572;52.094;4.870;2024-03-08T04:27:32;101649.41;;;6.45;52.76
51496;BME280;37572;52.094;4.870;2024-03-08T04:29:58;101657.44;;;6.44;52.60
51496;BME280;37572;52.094;4.870;2024-03-08T04:32:24;101646.25;;;6.40;52.69
51496;BME280;37572;52.094;4.870;2024-03-08T04:34:50;101644.53;;;6.39;52.85
51496;BME280;37572;52.094;4.870;2024-03-08T04:37:15;101644.66;;;6.38;52.64
51496;BME280;37572;52.094;4.870;2024-03-08T04:39:43;101631.41;;;6.38;52.72
51496;BME280;37572;52.094;4.870;2024-03-08T04:42:09;101636.72;;;6.38;52.84
51496;BME280;37572;52.094;4.870;2024-03-08T04:44:39;101635.88;;;6.37;52.65
51496;BME280;37572;52.094;4.870;2024-03-08T04:47:04;101640.53;;;6.34;52.64
51496;BME280;37572;52.094;4.870;2024-03-08T04:49:33;101640.75;;;6.30;52.89
51496;BME280;37572;52.094;4.870;2024-03-08T04:52:03;101635.56;;;6.29;52.71
51496;BME280;37572;52.094;4.870;2024-03-08T04:54:29;101630.38;;;6.27;52.92
51496;BME280;37572;52.094;4.870;2024-03-08T04:56:55;101628.72;;;6.26;52.77
51496;BME280;37572;52.094;4.870;2024-03-08T04:59:20;101621.09;;;6.22;53.06
51496;BME280;37572;52.094;4.870;2024-03-08T05:01:46;101626.38;;;6.22;52.85
51496;BME280;37572;52.094;4.870;2024-03-08T05:04:13;101625.53;;;6.21;52.96
51496;BME280;37572;52.094;4.870;2024-03-08T05:06:38;101623.75;;;6.22;52.86
51496;BME280;37572;52.094;4.870;2024-03-08T05:09:03;101624.88;;;6.18;52.60
51496;BME280;37572;52.094;4.870;2024-03-08T05:11:45;101618.88;;;6.16;52.56
51496;BME280;37572;52.094;4.870;2024-03-08T05:14:11;101621.50;;;6.16;53.01
51496;BME280;37572;52.094;4.870;2024-03-08T05:16:45;101618.03;;;6.15;52.94
51496;BME280;37572;52.094;4.870;2024-03-08T05:19:14;101620.69;;;6.15;52.72
51496;BME280;37572;52.094;4.870;2024-03-08T05:21:42;101614.66;;;6.13;52.91
51496;BME280;37572;52.094;4.870;2024-03-08T05:24:08;101612.00;;;6.13;52.99
51496;BME280;37572;52.094;4.870;2024-03-08T05:26:35;101608.41;;;6.14;52.67
51496;BME280;37572;52.094;4.870;2024-03-08T05:29:00;101608.28;;;6.16;52.69
51496;BME280;37572;52.094;4.870;2024-03-08T05:31:26;101610.09;;;6.15;52.89
51496;BME280;37572;52.094;4.870;2024-03-08T05:33:51;101609.16;;;6.16;52.67
51496;BME280;37572;52.094;4.870;2024-03-08T05:36:19;101606.63;;;6.15;52.55
51496;BME280;37572;52.094;4.870;2024-03-08T05:38:44;101605.75;;;6.14;52.87
51496;BME280;37572;52.094;4.870;2024-03-08T05:41:10;101602.28;;;6.14;52.85
51496;BME280;37572;52.094;4.870;2024-03-08T05:43:37;101611.91;;;6.15;52.92
51496;BME280;37572;52.094;4.870;2024-03-08T05:46:03;101606.72;;;6.13;52.58
51496;BME280;37572;52.094;4.870;2024-03-08T05:48:29;101601.53;;;6.11;52.40
51496;BME280;37572;52.094;4.870;2024-03-08T05:50:57;101600.91;;;6.08;52.76
51496;BME280;37572;52.094;4.870;2024-03-08T05:53:22;101598.13;;;6.09;52.58
51496;BME280;37572;52.094;4.870;2024-03-08T05:55:48;101601.66;;;6.10;52.70
51496;BME280;37572;52.094;4.870;2024-03-08T05:58:14;101598.13;;;6.09;52.86
51496;BME280;37572;52.094;4.870;2024-03-08T06:00:40;101596.56;;;6.07;52.61
51496;BME280;37572;52.094;4.870;2024-03-08T06:03:05;101592.84;;;6.09;52.71
51496;BME280;37572;52.094;4.870;2024-03-08T06:05:30;101589.47;;;6.07;52.85
51496;BME280;37572;52.094;4.870;2024-03-08T06:07:56;101586.94;;;6.06;52.75
51496;BME280;37572;52.094;4.870;2024-03-08T06:10:22;101593.09;;;6.06;52.76
51496;BME280;37572;52.094;4.870;2024-03-08T06:12:47;101580.69;;;6.07;52.85
51496;BME280;37572;52.094;4.870;2024-03-08T06:15:12;101583.44;;;6.05;52.75
51496;BME280;37572;52.094;4.870;2024-03-08T06:17:41;101582.72;;;6.03;52.63
51496;BME280;37572;52.094;4.870;2024-03-08T06:20:07;101578.38;;;6.02;52.70
51496;BME280;37572;52.094;4.870;2024-03-08T06:22:38;101581.13;;;6.01;52.30
51496;BME280;37572;52.094;4.870;2024-03-08T06:25:08;101579.22;;;6.03;52.77
51496;BME280;37572;52.094;4.870;2024-03-08T06:27:33;101575.63;;;6.04;52.65
51496;BME280;37572;52.094;4.870;2024-03-08T06:30:00;101586.41;;;6.01;52.48
51496;BME280;37572;52.094;4.870;2024-03-08T06:32:25;101578.16;;;6.05;52.69
51496;BME280;37572;52.094;4.870;2024-03-08T06:34:50;101581.53;;;6.07;52.65
51496;BME280;37572;52.094;4.870;2024-03-08T06:37:16;101584.81;;;6.11;52.25
51496;BME280;37572;52.094;4.870;2024-03-08T06:39:50;101575.72;;;6.15;52.54
51496;BME280;37572;52.094;4.870;2024-03-08T06:42:20;101576.97;;;6.22;52.21
51496;BME280;37572;52.094;4.870;2024-03-08T06:44:45;101576.41;;;6.30;52.30
51496;BME280;37572;52.094;4.870;2024-03-08T06:47:15;101572.38;;;6.37;51.92
51496;BME280;37572;52.094;4.870;2024-03-08T06:49:41;101565.81;;;6.43;51.90
51496;BME280;37572;52.094;4.870;2024-03-08T06:52:07;101566.22;;;6.50;51.48
51496;BME280;37572;52.094;4.870;2024-03-08T06:54:34;101562.16;;;6.57;51.46
51496;BME280;37572;52.094;4.870;2024-03-08T06:57:02;101562.84;;;6.72;51.65
51496;BME280;37572;52.094;4.870;2024-03-08T06:59:28;101554.03;;;6.95;51.21
51496;BME280;37572;52.094;4.870;2024-03-08T07:01:53;101568.63;;;7.36;51.02
51496;BME280;37572;52.094;4.870;2024-03-08T07:04:19;101571.22;;;7.83;50.09
51496;BME280;37572;52.094;4.870;2024-03-08T07:06:45;101558.69;;;8.08;49.09
51496;BME280;37572;52.094;4.870;2024-03-08T07:09:10;101557.22;;;8.26;48.56
51496;BME280;37572;52.094;4.870;2024-03-08T07:11:37;101556.59;;;8.34;48.43
51496;BME280;37572;52.094;4.870;2024-03-08T07:14:02;101553.22;;;8.32;48.32
51496;BME280;37572;52.094;4.870;2024-03-08T07:16:30;101556.81;;;8.31;48.03
51496;BME280;37572;52.094;4.870;2024-03-08T07:18:56;101548.16;;;8.29;48.04
51496;BME280;37572;52.094;4.870;2024-03-08T07:21:23;101539.13;;;8.31;47.58
51496;BME280;37572;52.094;4.870;2024-03-08T07:23:49;101548.84;;;8.42;47.61
51496;BME280;37572;52.094;4.870;2024-03-08T07:26:26;101539.72;;;8.79;47.79
51496;BME280;37572;52.094;4.870;2024-03-08T07:28:53;101549.63;;;9.30;46.48
51496;BME280;37572;52.094;4.870;2024-03-08T07:31:21;101537.56;;;9.78;45.97
51496;BME280;37572;52.094;4.870;2024-03-08T07:33:52;101537.47;;;10.30;45.01
51496;BME280;37572;52.094;4.870;2024-03-08T07:36:21;101536.59;;;10.80;44.03
51496;BME280;37572;52.094;4.870;2024-03-08T07:38:47;101539.63;;;11.24;43.18
51496;BME280;37572;52.094;4.870;2024-03-08T07:41:13;101524.38;;;11.63;42.58
51496;BME280;37572;52.094;4.870;2024-03-08T07:43:38;101531.09;;;12.05;42.38
51496;BME280;37572;52.094;4.870;2024-03-08T07:46:04;101525.41;;;12.46;41.52
51496;BME280;37572;52.094;4.870;2024-03-08T07:48:29;101529.53;;;12.76;40.43
51496;BME280;37572;52.094;4.870;2024-03-08T07:50:55;101524.00;;;12.95;39.67
51496;BME280;37572;52.094;4.870;2024-03-08T07:53:21;101516.19;;;13.02;38.91
51496;BME280;37572;52.094;4.870;2024-03-08T07:55:46;101524.94;;;13.04;38.87
51496;BME280;37572;52.094;4.870;2024-03-08T07:58:12;101518.13;;;12.92;38.62
51496;BME280;37572;52.094;4.870;2024-03-08T08:00:38;101518.00;;;12.57;39.19
51496;BME280;37572;52.094;4.870;2024-03-08T08:03:04;101517.72;;;12.15;39.55
51496;BME280;37572;52.094;4.870;2024-03-08T08:05:30;101524.78;;;11.69;40.17
51496;BME280;37572;52.094;4.870;2024-03-08T08:08:00;101514.34;;;11.38;40.72
51496;BME280;37572;52.094;4.870;2024-03-08T08:10:28;101511.59;;;11.20;41.00
51496;BME280;37572;52.094;4.870;2024-03-08T08:12:54;101510.91;;;11.08;41.55
51496;BME280;37572;52.094;4.870;2024-03-08T08:15:19;101508.78;;;11.02;41.71
51496;BME280;37572;52.094;4.870;2024-03-08T08:17:45;101513.72;;;11.06;41.98
51496;BME280;37572;52.094;4.870;2024-03-08T08:20:11;101503.03;;;11.16;41.77
51496;BME280;37572;52.094;4.870;2024-03-08T08:22:39;101495.88;;;11.17;41.55
51496;BME280;37572;52.094;4.870;2024-03-08T08:25:08;101497.44;;;11.09;41.32
51496;BME280;37572;52.094;4.870;2024-03-08T08:27:34;101488.75;;;10.88;41.93
51496;BME280;37572;52.094;4.870;2024-03-08T08:30:02;101485.69;;;10.73;42.21
51496;BME280;37572;52.094;4.870;2024-03-08T08:32:27;101486.09;;;10.59;42.05
51496;BME280;37572;52.094;4.870;2024-03-08T08:34:53;101486.53;;;10.44;42.66
51496;BME280;37572;52.094;4.870;2024-03-08T08:37:18;101481.44;;;10.31;42.97
51496;BME280;37572;52.094;4.870;2024-03-08T08:39:44;101475.25;;;10.21;43.11
51496;BME280;37572;52.094;4.870;2024-03-08T08:42:09;101473.69;;;10.18;43.44
51496;BME280;37572;52.094;4.870;2024-03-08T08:44:35;101471.03;;;10.18;43.35
51496;BME280;37572;52.094;4.870;2024-03-08T08:47:01;101479.28;;;10.15;43.43
51496;BME280;37572;52.094;4.870;2024-03-08T08:49:28;101474.41;;;10.11;42.92
51496;BME280;37572;52.094;4.870;2024-03-08T08:51:53;101470.44;;;10.05;43.53
51496;BME280;37572;52.094;4.870;2024-03-08T08:54:19;101467.09;;;10.03;43.76
51496;BME280;37572;52.094;4.870;2024-03-08T08:56:45;101459.78;;;10.05;43.96
51496;BME280;37572;52.094;4.870;2024-03-08T08:59:12;101457.84;;;10.07;43.55
51496;BME280;37572;52.094;4.870;2024-03-08T09:01:39;101454.91;;;10.10;43.81
51496;BME280;37572;52.094;4.870;2024-03-08T09:04:05;101457.03;;;10.16;43.94
51496;BME280;37572;52.094;4.870;2024-03-08T09:06:31;101447.38;;;10.25;43.85
51496;BME280;37572;52.094;4.870;2024-03-08T09:08:56;101451.16;;;10.32;43.58
51496;BME280;37572;52.094;4.870;2024-03-08T09:11:23;101440.25;;;10.35;43.62
51496;BME280;37572;52.094;4.870;2024-03-08T09:13:50;101438.00;;;10.41;43.80
51496;BME280;37572;52.094;4.870;2024-03-08T09:16:15;101440.69;;;10.50;43.99
51496;BME280;37572;52.094;4.870;2024-03-08T09:18:41;101437.19;;;10.60;43.68
51496;BME280;37572;52.094;4.870;2024-03-08T09:21:07;101439.13;;;10.67;43.31
51496;BME280;37572;52.094;4.870;2024-03-08T09:23:35;101431.66;;;10.81;43.33
51496;BME280;37572;52.094;4.870;2024-03-08T09:26:01;101440.34;;;11.02;43.24
51496;BME280;37572;52.094;4.870;2024-03-08T09:28:28;101429.34;;;11.25;42.67
51496;BME280;37572;52.094;4.870;2024-03-08T09:30:53;101423.84;;;11.36;41.99
51496;BME280;37572;52.094;4.870;2024-03-08T09:33:20;101419.44;;;11.45;42.12
51496;BME280;37572;52.094;4.870;2024-03-08T09:35:46;101419.84;;;11.50;42.31
51496;BME280;37572;52.094;4.870;2024-03-08T09:38:12;101412.72;;;11.41;41.75
51496;BME280;37572;52.094;4.870;2024-03-08T09:40:40;101415.28;;;11.33;41.88
51496;BME280;37572;52.094;4.870;2024-03-08T09:43:06;101419.91;;;11.30;41.98
51496;BME280;37572;52.094;4.870;2024-03-08T09:45:32;101402.94;;;11.32;41.99
51496;BME280;37572;52.094;4.870;2024-03-08T09:48:01;101389.44;;;11.33;41.63
51496;BME280;37572;52.094;4.870;2024-03-08T09:50:26;101385.19;;;11.40;42.00
51496;BME280;37572;52.094;4.870;2024-03-08T09:52:53;101393.16;;;11.50;41.80
51496;BME280;37572;52.094;4.870;2024-03-08T09:55:22;101384.44;;;11.58;41.49
51496;BME280;37572;52.094;4.870;2024-03-08T09:57:48;101379.34;;;11.64;41.78
51496;BME280;37572;52.094;4.870;2024-03-08T10:00:33;101376.38;;;11.68;41.44
51496;BME280;37572;52.094;4.870;2024-03-08T10:03:02;101372.25;;;11.73;41.44
51496;BME280;37572;52.094;4.870;2024-03-08T10:05:28;101355.66;;;11.79;41.58
51496;BME280;37572;52.094;4.870;2024-03-08T10:07:55;101352.34;;;11.85;41.79
51496;BME280;37572;52.094;4.870;2024-03-08T10:10:20;101353.63;;;11.91;41.77
51496;BME280;37572;52.094;4.870;2024-03-08T10:12:48;101346.53;;;12.00;41.78
51496;BME280;37572;52.094;4.870;2024-03-08T10:15:15;101338.59;;;12.08;41.66
51496;BME280;37572;52.094;4.870;2024-03-08T10:17:41;101343.13;;;12.08;40.70
51496;BME280;37572;52.094;4.870;2024-03-08T10:20:18;101333.25;;;12.08;40.71
51496;BME280;37572;52.094;4.870;2024-03-08T10:22:44;101335.63;;;12.11;40.97
51496;BME280;37572;52.094;4.870;2024-03-08T10:25:12;101320.28;;;12.13;40.91
51496;BME280;37572;52.094;4.870;2024-03-08T10:27:39;101320.22;;;12.23;41.33
51496;BME280;37572;52.094;4.870;2024-03-08T10:30:13;101309.13;;;12.36;40.90
51496;BME280;37572;52.094;4.870;2024-03-08T10:32:39;101306.84;;;12.41;40.54
51496;BME280;37572;52.094;4.870;2024-03-08T10:35:07;101302.53;;;12.48;40.84
51496;BME280;37572;52.094;4.870;2024-03-08T10:37:47;101306.25;;;12.55;40.67
51496;BME280;37572;52.094;4.870;2024-03-08T10:40:16;101285.94;;;12.63;40.31
51496;BME280;37572;52.094;4.870;2024-03-08T10:42:56;101289.22;;;12.83;40.25
51496;BME280;37572;52.094;4.870;2024-03-08T10:47:59;101283.69;;;13.19;39.55
51496;BME280;37572;52.094;4.870;2024-03-08T10:50:29;101275.69;;;13.27;39.43
51496;BME280;37572;52.094;4.870;2024-03-08T10:52:59;101259.13;;;13.23;39.27
51496;BME280;37572;52.094;4.870;2024-03-08T10:55:28;101252.28;;;13.21;38.92
51496;BME280;37572;52.094;4.870;2024-03-08T10:57:53;101249.59;;;13.21;39.23
51496;BME280;37572;52.094;4.870;2024-03-08T11:00:19;101245.09;;;13.21;39.18
51496;BME280;37572;52.094;4.870;2024-03-08T11:02:52;101242.25;;;13.23;39.50
51496;BME280;37572;52.094;4.870;2024-03-08T11:05:41;101235.41;;;13.28;39.12
51496;BME280;37572;52.094;4.870;2024-03-08T11:10:51;101239.16;;;13.52;38.70
51496;BME280;37572;52.094;4.870;2024-03-08T11:13:38;101224.78;;;13.61;38.86
51496;BME280;37572;52.094;4.870;2024-03-08T11:16:09;101210.91;;;13.66;38.74
51496;BME280;37572;52.094;4.870;2024-03-08T11:18:35;101208.09;;;13.67;38.03
51496;BME280;37572;52.094;4.870;2024-03-08T11:21:03;101195.38;;;13.69;38.30
51496;BME280;37572;52.094;4.870;2024-03-08T11:23:32;101199.69;;;13.79;38.51
51496;BME280;37572;52.094;4.870;2024-03-08T11:25:59;101198.69;;;13.88;38.39
51496;BME280;37572;52.094;4.870;2024-03-08T11:28:25;101181.28;;;14.00;38.23
51496;BME280;37572;52.094;4.870;2024-03-08T11:33:28;101174.41;;;14.14;38.09
51496;BME280;37572;52.094;4.870;2024-03-08T11:38:43;101168.63;;;14.42;37.54
51496;BME280;37572;52.094;4.870;2024-03-08T11:41:09;101162.53;;;14.56;37.04
51496;BME280;37572;52.094;4.870;2024-03-08T11:43:38;101145.41;;;14.74;36.84
51496;BME280;37572;52.094;4.870;2024-03-08T11:46:14;101159.41;;;14.92;35.57
51496;BME280;37572;52.094;4.870;2024-03-08T11:48:44;101165.50;;;15.09;35.40
51496;BME280;37572;52.094;4.870;2024-03-08T11:51:13;101155.00;;;15.23;35.26
51496;BME280;37572;52.094;4.870;2024-03-08T11:53:40;101138.16;;;15.37;35.19
51496;BME280;37572;52.094;4.870;2024-03-08T11:56:10;101142.41;;;15.46;34.67
51496;BME280;37572;52.094;4.870;2024-03-08T11:58:37;101136.88;;;15.48;34.22
51496;BME280;37572;52.094;4.870;2024-03-08T12:01:06;101133.66;;;15.52;34.62
51496;BME280;37572;52.094;4.870;2024-03-08T12:03:33;101132.25;;;15.57;34.02
51496;BME280;37572;52.094;4.870;2024-03-08T12:06:00;101149.69;;;15.61;33.95
51496;BME280;37572;52.094;4.870;2024-03-08T12:08:25;101139.13;;;15.59;33.96
51496;BME280;37572;52.094;4.870;2024-03-08T12:10:56;101138.69;;;15.70;33.76
51496;BME280;37572;52.094;4.870;2024-03-08T12:13:31;101132.94;;;15.73;33.00
51496;BME280;37572;52.094;4.870;2024-03-08T12:15:58;101130.16;;;15.67;33.10
51496;BME280;37572;52.094;4.870;2024-03-08T12:18:26;101116.44;;;15.62;32.91
51496;BME280;37572;52.094;4.870;2024-03-08T12:21:09;101117.75;;;15.66;32.72
51496;BME280;37572;52.094;4.870;2024-03-08T12:23:46;101116.19;;;15.71;32.92
51496;BME280;37572;52.094;4.870;2024-03-08T12:26:24;101115.69;;;15.76;32.67
51496;BME280;37572;52.094;4.870;2024-03-08T12:28:49;101117.00;;;15.72;32.72
51496;BME280;37572;52.094;4.870;2024-03-08T12:31:18;101116.31;;;15.78;32.90
51496;BME280;37572;52.094;4.870;2024-03-08T12:33:55;101106.63;;;15.92;33.54
51496;BME280;37572;52.094;4.870;2024-03-08T12:36:24;101100.78;;;16.18;33.70
51496;BME280;37572;52.094;4.870;2024-03-08T12:38:51;101097.25;;;16.33;33.02
51496;BME280;37572;52.094;4.870;2024-03-08T12:41:17;101099.22;;;16.39;33.01
51496;BME280;37572;52.094;4.870;2024-03-08T12:43:44;101091.50;;;16.51;33.34
51496;BME280;37572;52.094;4.870;2024-03-08T12:46:17;101081.13;;;16.48;32.28
51496;BME280;37572;52.094;4.870;2024-03-08T12:48:45;101078.53;;;16.39;32.82
51496;BME280;37572;52.094;4.870;2024-03-08T12:51:16;101077.31;;;16.42;33.10
51496;BME280;37572;52.094;4.870;2024-03-08T12:53:43;101069.41;;;16.55;33.05
51496;BME280;37572;52.094;4.870;2024-03-08T12:56:12;101071.47;;;16.75;33.16
51496;BME280;37572;52.094;4.870;2024-03-08T12:58:38;101070.19;;;16.86;32.75
51496;BME280;37572;52.094;4.870;2024-03-08T13:01:04;101063.41;;;16.90;31.75
51496;BME280;37572;52.094;4.870;2024-03-08T13:03:35;101058.97;;;17.04;32.43
51496;BME280;37572;52.094;4.870;2024-03-08T13:06:03;101075.25;;;17.17;32.17